createdAt,value
2018-12-07T00:02:05.751Z,11.20
2018-12-07T00:04:33.839Z,9.40
2018-12-07T00:07:01.967Z,12.10
2018-12-07T00:09:30.188Z,12.43
2018-12-07T00:11:58.319Z,10.63
2018-12-07T00:14:26.505Z,11.80
2018-12-07T00:16:54.634Z,11.70
2018-12-07T00:19:22.665Z,11.30
2018-12-07T00:21:50.893Z,11.47
2018-12-07T00:24:18.989Z,9.13
2018-12-07T00:26:47.126Z,12.10
2018-12-07T00:29:15.239Z,11.40
2018-12-07T00:31:43.322Z,9.40
2018-12-07T00:34:11.441Z,10.87
2018-12-07T00:36:39.563Z,11.13
2018-12-07T00:39:08.066Z,11.73
2018-12-07T00:41:36.181Z,8.63
2018-12-07T00:44:04.251Z,8.60
2018-12-07T00:46:32.335Z,11.53
2018-12-07T00:49:00.407Z,10.10
2018-12-07T00:51:28.575Z,10.03
2018-12-07T00:53:56.709Z,9.60
2018-12-07T00:56:24.853Z,9.43
2018-12-07T00:58:52.999Z,12.40
2018-12-07T01:01:21.119Z,9.10
2018-12-07T01:03:49.232Z,8.97
2018-12-07T01:06:17.848Z,10.27
2018-12-07T01:08:46.143Z,9.53
2018-12-07T01:11:14.227Z,9.53
2018-12-07T01:13:42.468Z,13.10
2018-12-07T01:16:10.542Z,9.87
2018-12-07T01:18:38.644Z,8.47
2018-12-07T01:21:06.733Z,8.33
2018-12-07T01:23:34.977Z,9.00
2018-12-07T01:26:03.115Z,10.30
2018-12-07T01:28:31.197Z,9.73
2018-12-07T01:30:59.307Z,9.60
2018-12-07T01:33:27.381Z,12.07
2018-12-07T01:35:55.456Z,11.00
2018-12-07T01:38:23.581Z,9.27
2018-12-07T01:40:51.755Z,9.67
2018-12-07T01:43:19.831Z,8.83
2018-12-07T01:45:47.959Z,10.50
2018-12-07T01:48:16.081Z,11.53
2018-12-07T01:50:44.215Z,8.37
2018-12-07T01:53:12.357Z,10.00
2018-12-07T01:55:40.515Z,7.90
2018-12-07T01:58:08.648Z,7.97
2018-12-07T02:00:36.793Z,8.20
2018-12-07T02:03:04.931Z,8.03
2018-12-07T02:05:32.980Z,9.03
2018-12-07T02:08:01.092Z,10.93
2018-12-07T02:10:29.216Z,9.23
2018-12-07T02:12:57.349Z,9.73
2018-12-07T02:15:25.454Z,8.40
2018-12-07T02:17:53.602Z,8.07
2018-12-07T02:20:21.703Z,6.63
2018-12-07T02:22:49.824Z,7.40
2018-12-07T02:28:07.343Z,8.20
2018-12-07T02:30:35.471Z,7.27
2018-12-07T02:33:03.606Z,7.87
2018-12-07T02:35:31.857Z,8.17
2018-12-07T02:38:00.178Z,7.17
2018-12-07T02:40:28.367Z,6.53
2018-12-07T02:42:56.582Z,6.07
2018-12-07T02:45:24.788Z,6.67
2018-12-07T02:47:52.914Z,7.10
2018-12-07T02:50:21.073Z,6.60
2018-12-07T02:52:49.287Z,6.40
2018-12-07T02:55:17.468Z,6.77
2018-12-07T02:57:45.635Z,7.87
2018-12-07T03:00:13.894Z,7.47
2018-12-07T03:02:42.052Z,6.67
2018-12-07T03:05:10.269Z,6.00
2018-12-07T03:07:38.442Z,7.07
2018-12-07T03:10:06.715Z,6.20
2018-12-07T03:12:34.919Z,6.03
2018-12-07T03:15:03.124Z,6.03
2018-12-07T03:17:31.260Z,7.77
2018-12-07T03:19:59.412Z,7.17
2018-12-07T03:22:27.692Z,6.00
2018-12-07T03:24:55.845Z,5.77
2018-12-07T03:27:23.964Z,7.50
2018-12-07T03:29:52.230Z,6.33
2018-12-07T03:32:20.369Z,6.33
2018-12-07T03:34:48.575Z,5.50
2018-12-07T03:37:16.764Z,5.90
2018-12-07T03:39:45.035Z,5.73
2018-12-07T03:42:13.298Z,6.03
2018-12-07T03:44:41.415Z,5.67
2018-12-07T03:47:09.641Z,7.97
2018-12-07T03:49:37.774Z,6.67
2018-12-07T03:52:05.895Z,8.20
2018-12-07T03:54:34.072Z,6.27
2018-12-07T03:57:02.248Z,6.03
2018-12-07T03:59:30.444Z,7.30
2018-12-07T04:01:58.594Z,8.47
2018-12-07T04:04:26.765Z,9.03
2018-12-07T04:06:54.896Z,6.30
2018-12-07T04:09:23.086Z,8.13
2018-12-07T04:11:52.524Z,6.23
2018-12-07T04:14:20.714Z,5.77
2018-12-07T04:16:48.872Z,6.87
2018-12-07T04:19:17.038Z,5.80
2018-12-07T04:21:45.242Z,6.40
2018-12-07T04:24:13.435Z,6.20
2018-12-07T04:26:41.588Z,6.63
2018-12-07T04:29:10.308Z,7.07
2018-12-07T04:31:38.576Z,6.07
2018-12-07T04:34:06.731Z,6.40
2018-12-07T04:36:34.963Z,6.77
2018-12-07T04:39:04.533Z,6.93
2018-12-07T04:41:32.726Z,6.60
2018-12-07T04:44:00.881Z,6.67
2018-12-07T04:46:29.127Z,4.73
2018-12-07T04:48:57.254Z,6.10
2018-12-07T04:51:25.516Z,7.97
2018-12-07T04:53:53.685Z,5.60
2018-12-07T04:56:21.927Z,5.63
2018-12-07T04:58:50.097Z,6.37
2018-12-07T05:01:18.391Z,7.20
2018-12-07T05:03:46.590Z,4.60
2018-12-07T05:06:14.809Z,5.33
2018-12-07T05:08:43.145Z,7.50
2018-12-07T05:11:11.307Z,5.57
2018-12-07T05:13:39.452Z,5.97
2018-12-07T05:16:07.618Z,4.90
2018-12-07T05:18:36.119Z,5.43
2018-12-07T05:21:04.263Z,5.10
2018-12-07T05:23:32.493Z,5.87
2018-12-07T05:26:00.707Z,5.97
2018-12-07T05:28:28.859Z,4.57
2018-12-07T05:30:57.083Z,5.20
2018-12-07T05:33:25.271Z,4.73
2018-12-07T05:35:54.003Z,5.83
2018-12-07T05:38:22.270Z,5.87
2018-12-07T05:40:50.527Z,6.00
2018-12-07T05:43:18.741Z,5.17
2018-12-07T05:45:47.087Z,4.87
2018-12-07T05:48:15.301Z,6.43
2018-12-07T05:50:43.587Z,5.67
2018-12-07T05:53:11.789Z,5.77
2018-12-07T05:55:39.932Z,5.03
2018-12-07T05:58:08.127Z,5.67
2018-12-07T06:00:36.331Z,5.13
2018-12-07T06:03:04.561Z,6.03
2018-12-07T06:05:32.711Z,5.00
2018-12-07T06:08:00.839Z,5.27
2018-12-07T06:10:29.072Z,6.97
2018-12-07T06:12:57.307Z,5.70
2018-12-07T06:15:25.534Z,5.13
2018-12-07T06:17:53.697Z,4.33
2018-12-07T06:20:21.887Z,5.77
2018-12-07T06:22:50.060Z,4.30
2018-12-07T06:25:18.307Z,5.23
2018-12-07T06:27:46.514Z,5.27
2018-12-07T06:30:14.662Z,4.87
2018-12-07T06:32:42.915Z,6.10
2018-12-07T06:35:11.294Z,5.43
2018-12-07T06:37:39.508Z,6.00
2018-12-07T06:40:07.895Z,5.40
2018-12-07T06:42:36.132Z,4.63
2018-12-07T06:45:05.200Z,4.90
2018-12-07T06:47:33.423Z,5.03
2018-12-07T06:50:01.614Z,5.40
2018-12-07T06:52:29.739Z,4.30
2018-12-07T06:54:57.967Z,4.67
2018-12-07T06:57:26.121Z,6.50
2018-12-07T06:59:54.322Z,6.57
2018-12-07T07:02:22.620Z,6.23
2018-12-07T07:04:50.754Z,5.47
2018-12-07T07:07:18.935Z,5.27
2018-12-07T07:09:47.060Z,6.47
2018-12-07T07:12:15.276Z,4.83
2018-12-07T07:14:43.390Z,4.97
2018-12-07T07:17:11.599Z,6.73
2018-12-07T07:19:39.844Z,5.00
2018-12-07T07:22:08.184Z,6.57
2018-12-07T07:24:36.305Z,5.77
2018-12-07T07:27:04.529Z,4.90
2018-12-07T07:29:32.695Z,4.97
2018-12-07T07:32:00.842Z,8.17
2018-12-07T07:34:29.185Z,4.57
2018-12-07T07:36:57.383Z,5.20
2018-12-07T07:39:25.609Z,4.80
2018-12-07T07:41:53.870Z,6.20
2018-12-07T07:44:22.123Z,5.63
2018-12-07T07:46:50.313Z,5.87
2018-12-07T07:49:18.460Z,6.67
2018-12-07T07:51:46.707Z,4.63
2018-12-07T07:54:14.965Z,3.60
2018-12-07T07:56:43.142Z,5.83
2018-12-07T07:59:11.345Z,4.17
2018-12-07T08:01:39.503Z,4.40
2018-12-07T08:04:07.650Z,7.13
2018-12-07T08:06:35.893Z,6.33
2018-12-07T08:09:06.220Z,7.70
2018-12-07T08:11:34.441Z,3.87
2018-12-07T08:14:02.588Z,9.20
2018-12-07T08:16:30.735Z,4.03
2018-12-07T08:18:58.931Z,4.87
2018-12-07T08:21:27.191Z,5.37
2018-12-07T08:23:55.375Z,5.40
2018-12-07T08:26:23.695Z,6.87
2018-12-07T08:28:51.849Z,3.70
2018-12-07T08:31:20.559Z,3.63
2018-12-07T08:33:48.743Z,3.70
2018-12-07T08:36:16.929Z,4.53
2018-12-07T08:38:45.053Z,2.93
2018-12-07T08:41:13.230Z,3.53
2018-12-07T08:43:41.486Z,3.50
2018-12-07T08:46:09.671Z,3.23
2018-12-07T08:48:37.944Z,6.17
2018-12-07T08:51:06.142Z,6.40
2018-12-07T08:53:34.362Z,3.00
2018-12-07T08:56:02.516Z,2.47
2018-12-07T08:58:30.806Z,2.53
2018-12-07T09:00:58.949Z,2.43
2018-12-07T09:03:27.144Z,2.80
2018-12-07T09:05:55.375Z,2.40
2018-12-07T09:08:23.513Z,3.13
2018-12-07T09:10:51.623Z,5.20
2018-12-07T09:13:19.804Z,5.20
2018-12-07T09:15:48.079Z,4.53
2018-12-07T09:18:16.250Z,6.40
2018-12-07T09:20:44.431Z,2.47
2018-12-07T09:23:12.561Z,4.17
2018-12-07T09:25:40.839Z,2.83
2018-12-07T09:28:09.227Z,2.23
2018-12-07T09:30:37.445Z,3.13
2018-12-07T09:33:05.684Z,2.63
2018-12-07T09:35:33.865Z,2.57
2018-12-07T09:38:02.025Z,2.77
2018-12-07T09:40:30.275Z,3.40
2018-12-07T09:42:58.433Z,2.20
2018-12-07T09:45:26.692Z,2.40
2018-12-07T09:47:54.901Z,1.80
2018-12-07T09:50:23.177Z,2.20
2018-12-07T09:52:51.642Z,3.47
2018-12-07T09:55:19.845Z,1.83
2018-12-07T09:57:48.177Z,3.87
2018-12-07T10:00:16.392Z,2.73
2018-12-07T10:02:44.738Z,3.27
2018-12-07T10:05:12.948Z,2.20
2018-12-07T10:07:41.182Z,7.87
2018-12-07T10:10:09.401Z,7.23
2018-12-07T10:12:37.676Z,3.63
2018-12-07T10:15:06.713Z,3.77
2018-12-07T10:17:35.081Z,2.37
2018-12-07T10:20:03.565Z,2.80
2018-12-07T10:22:31.774Z,2.07
2018-12-07T10:25:00.111Z,1.43
2018-12-07T10:27:28.723Z,1.40
2018-12-07T10:29:57.560Z,2.03
2018-12-07T10:32:26.129Z,1.87
2018-12-07T10:34:54.816Z,1.53
2018-12-07T10:37:23.466Z,1.63
2018-12-07T10:39:52.003Z,2.13
2018-12-07T10:42:20.493Z,2.13
2018-12-07T10:44:49.202Z,1.77
2018-12-07T10:47:17.702Z,1.60
2018-12-07T10:49:46.355Z,2.17
2018-12-07T10:52:14.843Z,3.90
2018-12-07T10:54:43.110Z,2.17
2018-12-07T10:57:11.342Z,1.60
2018-12-07T10:59:39.481Z,2.90
2018-12-07T11:02:13.241Z,1.50
2018-12-07T11:04:46.939Z,3.17
2018-12-07T11:07:20.747Z,1.97
2018-12-07T11:09:54.482Z,2.53
2018-12-07T11:12:28.009Z,3.10
2018-12-07T11:15:01.640Z,1.60
2018-12-07T11:17:35.575Z,1.60
2018-12-07T11:20:09.649Z,3.50
2018-12-07T11:22:43.302Z,1.67
2018-12-07T11:25:16.838Z,2.40
2018-12-07T11:27:50.602Z,2.77
2018-12-07T11:30:24.282Z,1.50
2018-12-07T11:32:57.788Z,1.47
2018-12-07T11:38:10.089Z,1.77
2018-12-07T11:40:38.258Z,1.70
2018-12-07T11:43:06.333Z,1.87
2018-12-07T11:45:34.493Z,2.20
2018-12-07T11:48:02.955Z,1.30
2018-12-07T11:50:31.234Z,2.87
2018-12-07T11:52:59.465Z,3.43
2018-12-07T11:55:27.960Z,1.30
2018-12-07T11:57:56.294Z,1.37
2018-12-07T12:00:24.771Z,2.40
2018-12-07T12:02:53.027Z,1.30
2018-12-07T12:05:21.258Z,1.37
2018-12-07T12:07:49.467Z,1.17
2018-12-07T12:10:17.771Z,1.30
2018-12-07T12:12:47.386Z,1.30
2018-12-07T12:15:16.192Z,1.10
2018-12-07T12:17:44.552Z,1.37
2018-12-07T12:20:12.803Z,1.47
2018-12-07T12:22:41.178Z,2.50
2018-12-07T12:25:09.442Z,1.17
2018-12-07T12:27:37.988Z,2.23
2018-12-07T12:30:06.851Z,2.20
2018-12-07T13:05:40.774Z,1.60
2018-12-07T13:08:08.877Z,1.67
2018-12-07T13:10:37.128Z,1.60
2018-12-07T13:13:05.312Z,2.50
2018-12-07T13:15:33.538Z,1.20
2018-12-07T13:18:01.764Z,1.47
2018-12-07T13:20:30.512Z,2.23
2018-12-07T13:22:58.823Z,2.40
2018-12-07T13:25:27.141Z,1.87
2018-12-07T13:27:55.731Z,1.57
2018-12-07T13:30:23.936Z,2.07
2018-12-07T13:32:52.137Z,1.63
2018-12-07T13:35:21.335Z,3.17
2018-12-07T13:37:49.597Z,1.60
2018-12-07T13:40:17.973Z,1.17
2018-12-07T13:42:46.465Z,1.07
2018-12-07T13:45:14.848Z,1.40
2018-12-07T13:47:43.149Z,3.70
2018-12-07T13:50:45.141Z,1.60
2018-12-07T13:53:13.488Z,2.13
2018-12-07T13:55:41.658Z,1.90
2018-12-07T13:58:09.867Z,1.90
2018-12-07T14:00:38.160Z,1.60
2018-12-07T14:03:06.364Z,1.37
2018-12-07T14:05:34.709Z,1.33
2018-12-07T14:08:03.225Z,2.63
2018-12-07T14:10:31.660Z,2.93
2018-12-07T14:12:59.877Z,2.07
2018-12-07T14:15:28.172Z,1.83
2018-12-07T14:17:56.372Z,1.70
2018-12-07T14:20:24.965Z,1.50
2018-12-07T14:22:53.276Z,3.13
2018-12-07T14:25:21.493Z,2.87
2018-12-07T14:27:49.646Z,2.00
2018-12-07T14:30:17.838Z,2.47
2018-12-07T14:32:46.297Z,2.33
2018-12-07T14:35:14.763Z,5.40
2018-12-07T14:37:43.093Z,2.00
2018-12-07T14:40:11.512Z,3.30
2018-12-07T14:42:39.896Z,1.97
2018-12-07T14:45:08.167Z,1.67
2018-12-07T14:47:36.353Z,3.07
2018-12-07T14:50:05.014Z,2.00
2018-12-07T14:52:33.258Z,2.10
2018-12-07T14:55:01.826Z,3.00
2018-12-07T14:57:30.283Z,2.07
2018-12-07T14:59:58.533Z,2.27
2018-12-07T15:02:26.921Z,2.43
2018-12-07T15:04:55.178Z,2.40
2018-12-07T15:07:23.598Z,2.33
2018-12-07T15:09:51.945Z,2.90
2018-12-07T15:12:20.179Z,2.00
2018-12-07T15:14:48.622Z,2.70
2018-12-07T15:17:17.217Z,2.20
2018-12-07T15:19:45.757Z,2.00
2018-12-07T15:22:14.080Z,2.47
2018-12-07T15:24:42.353Z,2.90
2018-12-07T15:27:10.561Z,2.20
2018-12-07T15:29:38.882Z,3.03
2018-12-07T15:32:07.455Z,2.70
2018-12-07T15:34:35.624Z,2.20
2018-12-07T15:37:04.011Z,2.80
2018-12-07T15:39:32.395Z,2.60
2018-12-07T15:42:00.709Z,2.03
2018-12-07T15:44:29.144Z,1.57
2018-12-07T15:46:57.508Z,2.50
2018-12-07T15:49:25.772Z,1.73
2018-12-07T15:51:54.125Z,2.67
2018-12-07T15:54:22.558Z,2.10
2018-12-07T15:56:50.796Z,2.93
2018-12-07T15:59:19.009Z,1.70
2018-12-07T16:01:47.363Z,2.27
2018-12-07T16:04:15.604Z,2.67
2018-12-07T16:06:44.248Z,2.50
2018-12-07T16:09:12.645Z,4.30
2018-12-07T16:11:40.868Z,2.93
2018-12-07T16:14:09.033Z,2.73
2018-12-07T16:16:37.208Z,3.60
2018-12-07T16:19:05.483Z,2.83
2018-12-07T16:21:33.894Z,3.13
2018-12-07T16:24:02.330Z,3.80
2018-12-07T16:26:30.669Z,3.10
2018-12-07T16:28:59.168Z,6.57
2018-12-07T16:31:27.604Z,3.17
2018-12-07T16:33:56.108Z,2.37
2018-12-07T16:36:24.378Z,4.03
2018-12-07T16:38:52.552Z,2.00
2018-12-07T16:41:21.038Z,6.13
2018-12-07T16:43:49.441Z,6.03
2018-12-07T16:46:17.652Z,2.60
2018-12-07T16:48:45.831Z,2.20
2018-12-07T16:51:14.274Z,2.67
2018-12-07T16:53:42.811Z,2.83
2018-12-07T16:56:11.179Z,2.40
2018-12-07T16:58:39.736Z,2.50
2018-12-07T17:01:08.452Z,2.37
2018-12-07T17:03:37.172Z,5.60
2018-12-07T17:06:05.554Z,3.70
2018-12-07T17:08:33.805Z,2.77
2018-12-07T17:11:02.099Z,3.10
2018-12-07T17:13:30.323Z,2.57
2018-12-07T17:15:58.679Z,2.23
2018-12-07T17:18:26.883Z,3.67
2018-12-07T17:20:55.265Z,2.97
2018-12-07T17:23:23.618Z,1.60
2018-12-07T17:25:51.920Z,3.40
2018-12-07T17:28:20.454Z,2.00
2018-12-07T17:30:50.302Z,3.30
2018-12-07T17:33:18.617Z,2.30
2018-12-07T17:35:46.999Z,2.40
2018-12-07T17:38:15.344Z,4.07
2018-12-07T17:40:44.020Z,2.60
2018-12-07T17:43:12.373Z,1.67
2018-12-07T17:45:40.534Z,2.00
2018-12-07T17:48:08.898Z,1.53
2018-12-07T17:50:37.279Z,2.40
2018-12-07T17:53:05.717Z,1.50
2018-12-07T17:55:34.102Z,2.77
2018-12-07T17:58:02.594Z,1.47
2018-12-07T18:00:30.952Z,2.83
2018-12-07T18:02:59.113Z,2.30
2018-12-07T18:05:27.613Z,3.10
2018-12-07T18:07:55.920Z,2.97
2018-12-07T18:10:24.239Z,2.97
2018-12-07T18:12:52.672Z,5.17
2018-12-07T18:15:20.994Z,3.57
2018-12-07T18:17:49.451Z,3.53
2018-12-07T18:20:17.744Z,3.83
2018-12-07T18:22:46.185Z,3.00
2018-12-07T18:25:14.463Z,7.17
2018-12-07T18:27:43.106Z,3.47
2018-12-07T18:30:11.359Z,4.83
2018-12-07T18:32:39.558Z,2.53
2018-12-07T18:35:07.915Z,3.57
2018-12-07T18:37:36.322Z,6.47
2018-12-07T18:40:05.213Z,5.77
2018-12-07T18:42:33.482Z,4.20
2018-12-07T18:45:01.741Z,6.90
2018-12-07T18:47:30.208Z,6.67
2018-12-07T18:49:58.547Z,8.07
2018-12-07T18:52:27.239Z,4.57
2018-12-07T18:54:55.516Z,4.57
2018-12-07T18:57:23.838Z,5.10
2018-12-07T18:59:52.388Z,4.47
2018-12-07T19:02:20.847Z,3.57
2018-12-07T19:04:50.579Z,4.20
2018-12-07T19:07:18.962Z,5.37
2018-12-07T19:09:47.090Z,3.53
2018-12-07T19:12:15.445Z,5.70
2018-12-07T19:14:43.785Z,5.43
2018-12-07T19:17:12.091Z,6.97
2018-12-07T19:19:40.886Z,5.57
2018-12-07T19:22:09.372Z,4.53
2018-12-07T19:24:37.783Z,3.03
2018-12-07T19:27:06.161Z,4.10
2018-12-07T19:29:34.450Z,4.90
2018-12-07T19:32:03.183Z,4.37
2018-12-07T19:34:31.659Z,3.70
2018-12-07T19:37:00.070Z,3.90
2018-12-07T19:39:28.328Z,3.57
2018-12-07T19:41:56.532Z,4.00
2018-12-07T19:44:24.767Z,3.57
2018-12-07T19:46:53.123Z,4.17
2018-12-07T19:49:21.370Z,4.13
2018-12-07T19:51:49.862Z,3.63
2018-12-07T19:54:18.328Z,3.93
2018-12-07T19:56:46.434Z,2.13
2018-12-07T19:59:14.659Z,2.40
2018-12-07T20:01:43.034Z,3.67
2018-12-07T20:04:11.496Z,4.27
2018-12-07T20:06:40.217Z,3.53
2018-12-07T20:09:08.671Z,3.00
2018-12-07T20:11:37.029Z,2.43
2018-12-07T20:14:05.709Z,4.57
2018-12-07T20:16:34.166Z,4.57
2018-12-07T20:19:02.676Z,2.23
2018-12-07T20:21:30.911Z,4.93
2018-12-07T20:23:59.589Z,4.07
2018-12-07T20:26:28.104Z,3.23
2018-12-07T20:28:56.392Z,1.97
2018-12-07T20:31:24.491Z,2.37
2018-12-07T20:33:53.119Z,3.13
2018-12-07T20:36:21.515Z,2.63
2018-12-07T20:38:49.990Z,3.70
2018-12-07T20:41:18.361Z,2.30
2018-12-07T20:43:46.568Z,2.03
2018-12-07T20:46:14.962Z,2.03
2018-12-07T20:48:43.407Z,5.37
2018-12-07T20:51:11.966Z,2.77
2018-12-07T20:53:40.305Z,2.60
2018-12-07T20:56:08.493Z,2.57
2018-12-07T21:13:27.933Z,2.10
2018-12-07T21:16:08.795Z,2.90
2018-12-07T21:18:37.440Z,3.00
2018-12-07T21:21:05.811Z,3.23
2018-12-07T21:23:34.651Z,2.47
2018-12-07T21:26:03.337Z,2.83
2018-12-07T21:28:31.856Z,4.10
2018-12-07T21:31:01.867Z,2.47
2018-12-07T21:33:37.317Z,2.83
2018-12-07T21:36:24.774Z,3.10
2018-12-07T21:38:53.217Z,2.40
2018-12-07T21:41:21.386Z,2.20
2018-12-07T21:43:49.666Z,2.30
2018-12-07T21:46:17.932Z,2.80
2018-12-07T21:48:46.534Z,2.73
2018-12-07T21:51:38.273Z,3.10
2018-12-07T21:54:06.733Z,3.47
2018-12-07T21:56:35.535Z,1.93
2018-12-07T21:59:04.340Z,2.43
2018-12-07T22:01:32.685Z,2.43
2018-12-07T22:04:01.024Z,1.97
2018-12-07T22:06:29.483Z,2.33
2018-12-07T22:08:58.395Z,1.63
2018-12-07T22:11:26.908Z,2.13
2018-12-07T22:13:55.427Z,1.80
2018-12-07T22:16:23.613Z,4.03
2018-12-07T22:18:55.524Z,3.83
2018-12-07T22:21:35.401Z,1.33
2018-12-07T22:24:03.795Z,3.57
2018-12-07T22:26:32.097Z,3.53
2018-12-07T22:29:00.412Z,1.63
2018-12-07T22:31:28.867Z,1.27
2018-12-07T22:33:57.421Z,5.83
2018-12-07T22:36:25.721Z,1.03
2018-12-07T22:38:54.254Z,1.40
2018-12-07T22:41:23.073Z,2.50
2018-12-07T22:43:51.706Z,1.57
2018-12-07T22:46:20.175Z,0.73
2018-12-07T22:48:48.769Z,0.77
2018-12-07T22:51:19.340Z,4.20
2018-12-07T22:53:47.706Z,0.60
2018-12-07T22:56:15.867Z,3.33
2018-12-07T22:58:44.171Z,4.90
2018-12-07T23:01:12.349Z,2.17
2018-12-07T23:03:40.583Z,2.37
2018-12-07T23:06:08.797Z,1.60
2018-12-07T23:08:37.008Z,1.20
2018-12-07T23:11:05.190Z,1.47
2018-12-07T23:13:33.424Z,3.30
2018-12-07T23:16:01.594Z,2.43
2018-12-07T23:18:30.713Z,4.17
2018-12-07T23:20:58.919Z,3.40
2018-12-07T23:23:27.217Z,2.17
2018-12-07T23:25:55.805Z,3.80
2018-12-07T23:28:24.031Z,6.10
2018-12-07T23:30:52.308Z,4.10
2018-12-07T23:33:20.553Z,1.77
2018-12-07T23:35:48.803Z,3.57
2018-12-07T23:38:17.204Z,4.10
2018-12-07T23:40:46.027Z,4.63
2018-12-07T23:43:14.321Z,5.80
2018-12-07T23:45:42.492Z,5.27
2018-12-07T23:48:10.972Z,5.90
2018-12-07T23:50:39.239Z,2.53
2018-12-07T23:53:07.446Z,4.97
2018-12-07T23:55:35.687Z,4.53
2018-12-07T23:58:03.947Z,4.90
